Prince Rupert Airport
CYPR : now visible

Airfield :











YOU CAN JOIN US ON...

 
LOGIN :

Register | Disclaimer

   EN    FR    IT 

 









Legend :    VFR   Marginal VFR   IFR   Intensive IFR   Very Intensive IFR
Visi :
Ceiling :
>= 8 km
>= 3000ft
5 to 8 km
1000 to 3000 ft
1500m to 5 km
500 to 1000 ft
800 to 1500m
200 to 500 ft
< 800m
< 200 ft
Symbols :   Thunderstorms  Fog  Heavy snow  Heavy precipitations  Wind > 20 kt






- Airport Elevation : 116 ft
- IATA code : YPR


CYPR - Prince Rupert

CURRENT METAR :
  • 170600Z AUTO 12013G20KT 8SM -RA OVC044 08/06 A2956 RMK PRESFR PCPN 1.8MM PAST HR SLP012

EXPIRED METARs :
  • 170500Z AUTO 11012KT 6SM RA BR OVC040 08/06 A2961 RMK PRESFR SLP028
  • 170448Z AUTO 12008KT 6SM RA BR OVC040 08/06 A2962 RMK SLP034
  • 170435Z AUTO 12008KT 5SM RA BR SCT035 OVC042 08/07 A2963 RMK SLP037
  • 170400Z AUTO 14009KT 9SM -RA BKN039 OVC046 09/06 A2966 RMK SLP046

TAF TAF CYPR
Valid from the 17 at 07:00 until the 17 at 19:00 UTC


170638Z 1707/1719 12012G28KT P6SM -RA SCT020 OVC040
TEMPO 1707/1719 5SM -RA BR BKN020 OVC040 RMK FCST BASED ON AUTO OBS. NXT FCST BY 171300Z
CZVR FIR / North America



MET'MAP, your aeronautical weather chart ! - Copyright ORBIFLY December 2007 - Disclaimer

ORBIFLY MET'MAP TEAM :

Programming & Development : Alexandra Zaïnal
Concept & original design : Baudouin d'Aumeries
Assistance for programming : Marc-Olivier Méhu
Technical & hardware support : Manuel Goepfert

Contact : metmap@orbifly.com




SOURCES & CREDITS :

   NOAA       Earth
Advisory